• Join FlightAware (Why Join?)
  • Login
  • US Flag 
10:12PM EDT


 

Airport Tracker/Info


-or-


 

Live Flight TrackerFlight Track Log ✈ EJA646 ✈ 21-May-2013 ✈ KSGR - KFWS

Flight Track Log - Related Links

Times and Time Zones

All times are in EDT time to prevent confusion due to time zone crossing. See the EJA646 flight status page for this flight to view local times or setup timezone preferences in your user account.

Time Position Orientation Groundspeed Altitude Reporting Facility
EDT Latitude Longitude Course Direction KTS MPH feet Rate Location/Type
09:11AM 29.6164 -95.6567 176° South 170 196 800  Level Houston Center
09:12AM 29.5783 -95.6539 176° South 166 191 2,300 2,520 Climbing Houston Center
09:13AM 29.5525 -95.6233 134° Southeast 201 231 5,200 3,000 Climbing Houston Center
09:14AM 29.6108 -95.5883 28° Northeast 256 295 8,400 2,820 Climbing Houston Center
09:15AM 29.6878 -95.5772 North 275 316 11,600 3,240 Climbing Houston Center
09:16AM 29.7800 -95.5658 North 276 318 15,100 2,640 Climbing Houston Center
09:17AM 29.8653 -95.5556 North 296 341 17,100 1,920 Climbing Houston Center
09:18AM 29.9608 -95.5431 North 332 382 19,100 1,860 Climbing Houston Center
09:19AM 30.0619 -95.5294 North 355 409 21,000 1,740 Climbing Houston Center
09:20AM 30.1656 -95.5161 North 368 423 22,800 1,440 Climbing Houston Center
09:21AM 30.2700 -95.5022 North 374 430 24,000 540 Climbing Houston Center
09:22AM 30.3839 -95.4864 North 403 464 24,000  Level Houston Center
09:23AM 30.5256 -95.4736 North 420 483 24,000  Level Houston Center
09:24AM 30.6367 -95.4986 349° North 405 466 24,000  Level Houston Center
09:25AM 30.7392 -95.5219 349° North 408 470 24,000  Level Houston Center
09:26AM 30.8733 -95.5519 349° North 403 464 24,000  Level Houston Center
09:27AM 30.9850 -95.5781 349° North 405 466 24,000  Level Houston Center
09:28AM 31.0961 -95.6019 350° North 405 466 24,000  Level Houston Center
09:29AM 31.2069 -95.6272 349° North 403 464 24,000  Level Houston Center
09:30AM 31.3119 -95.6675 342° North 393 452 24,000  Level Houston Center
09:31AM 31.3983 -95.7456 322° Northwest 390 449 24,000  Level Houston Center
09:32AM 31.4828 -95.8244 321° Northwest 389 448 24,000 -360 Level Houston Center
09:33AM 31.5850 -95.9194 322° Northwest 388 447 23,300 -1,260 Descending Houston Center
09:34AM 31.6747 -96.0031 322° Northwest 406 467 21,500 -1,800 Descending Houston Center
09:35AM 31.7600 -96.0839 321° Northwest 397 457 19,700 -1,920 Descending Houston Center
09:36AM 31.8481 -96.1686 321° Northwest 398 458 17,700 -2,460 Descending Fort Worth Center
09:37AM 31.9261 -96.2433 321° Northwest 381 438 14,900 -2,220 Descending Fort Worth Center
09:38AM 31.9914 -96.3061 321° Northwest 354 407 13,300 -1,800 Descending Fort Worth Center
09:39AM 32.0692 -96.3811 321° Northwest 354 407 11,400 -1,800 Descending Fort Worth Center
09:40AM 32.1386 -96.4467 321° Northwest 348 400 9,700 -1,200 Descending Fort Worth Center
09:41AM 32.2017 -96.5050 322° Northwest 317 365 9,000 -360 Descending Fort Worth Center
09:42AM 32.2647 -96.5633 322° Northwest 293 337 9,000  Level Fort Worth Center
09:43AM 32.3319 -96.6317 319° Northwest 293 337 9,000  Level Fort Worth Center
09:44AM 32.3950 -96.6803 327° Northwest 293 337 9,000 -480 Level Fort Worth Center
09:45AM 32.4869 -96.7064 347° North 293 337 8,100 -1,500 Descending Fort Worth Center
09:46AM 32.5372 -96.7556 321° Northwest 259 298 6,000 -2,040 Descending Fort Worth Center
09:47AM 32.5461 -96.8467 277° West 245 282 4,100 -1,020 Descending Fort Worth Center
09:48AM 32.5464 -96.9253 270° West 240 276 4,000 -60 Descending Fort Worth Center
09:49AM 32.5572 -96.9919 281° West 232 267 4,000 -60 Level Fort Worth Center
09:50AM 32.6011 -97.0706 304° West 247 284 3,900 -540 Descending Fort Worth Center
09:51AM 32.6347 -97.1297 304° West 253 291 3,000 -480 Descending Fort Worth Center
09:52AM 32.6850 -97.1911 314° West 243 280 3,000  Level Fort Worth Center
09:53AM 32.7350 -97.2406 320° Northwest 243 280 3,000  Level Fort Worth Center
09:54AM 32.7289 -97.2950 262° West 156 180 3,000 -360 Level Fort Worth Center
09:57AM 32.6333 -97.3000 183° South 125 144 1,900 -540 Descending Dallas / Fort Worth TRACON
09:58AM 32.6000 -97.3000 180° South 125 144 1,300 -600 Descending Dallas / Fort Worth TRACON
10:00AM 32.5652 -97.3081 216° Southwest  Level Estimated
10:07AM 32.5652 -97.3081 216° Southwest  Level Estimated